sensor_id;sensor_type;location;lat;lon;timestamp;temperature;humidity
35668;DHT22;22158;59.280;17.806;2022-12-18T05:02:02;-0.80;99.90
35668;DHT22;22158;59.280;17.806;2022-12-18T05:04:28;-0.80;99.90
35668;DHT22;22158;59.280;17.806;2022-12-18T05:06:54;-0.80;99.90
35668;DHT22;22158;59.280;17.806;2022-12-18T05:09:20;-0.80;99.90
35668;DHT22;22158;59.280;17.806;2022-12-18T05:11:46;-0.80;99.90
35668;DHT22;22158;59.280;17.806;2022-12-18T05:14:12;-0.90;99.90
35668;DHT22;22158;59.280;17.806;2022-12-18T05:16:37;-0.90;99.90
35668;DHT22;22158;59.280;17.806;2022-12-18T05:19:03;-0.90;99.90
35668;DHT22;22158;59.280;17.806;2022-12-18T05:21:29;-0.90;99.90
35668;DHT22;22158;59.280;17.806;2022-12-18T05:23:54;-0.80;99.90
35668;DHT22;22158;59.280;17.806;2022-12-18T05:26:20;-0.80;99.90
35668;DHT22;22158;59.280;17.806;2022-12-18T05:28:46;-0.80;99.90
35668;DHT22;22158;59.280;17.806;2022-12-18T05:31:12;-0.70;99.90
35668;DHT22;22158;59.280;17.806;2022-12-18T05:33:38;-0.70;99.90
35668;DHT22;22158;59.280;17.806;2022-12-18T05:36:06;-0.60;99.90
35668;DHT22;22158;59.280;17.806;2022-12-18T05:38:33;-0.70;99.90
35668;DHT22;22158;59.280;17.806;2022-12-18T05:40:59;-0.70;99.90
35668;DHT22;22158;59.280;17.806;2022-12-18T05:43:26;-0.70;99.90
35668;DHT22;22158;59.280;17.806;2022-12-18T05:45:52;-0.70;99.90
35668;DHT22;22158;59.280;17.806;2022-12-18T05:48:18;-0.80;99.90
35668;DHT22;22158;59.280;17.806;2022-12-18T05:50:45;-0.70;99.90
35668;DHT22;22158;59.280;17.806;2022-12-18T05:53:12;-0.70;99.90
35668;DHT22;22158;59.280;17.806;2022-12-18T05:55:40;-0.70;99.90
35668;DHT22;22158;59.280;17.806;2022-12-18T05:58:07;-0.70;99.90
35668;DHT22;22158;59.280;17.806;2022-12-18T06:00:35;-0.70;99.90
35668;DHT22;22158;59.280;17.806;2022-12-18T06:03:01;-0.70;99.90
35668;DHT22;22158;59.280;17.806;2022-12-18T06:05:27;-0.70;99.90
35668;DHT22;22158;59.280;17.806;2022-12-18T06:07:53;-0.80;99.90
35668;DHT22;22158;59.280;17.806;2022-12-18T06:10:19;-0.80;99.90
35668;DHT22;22158;59.280;17.806;2022-12-18T06:12:44;-0.70;99.90
35668;DHT22;22158;59.280;17.806;2022-12-18T06:15:10;-0.70;99.90
35668;DHT22;22158;59.280;17.806;2022-12-18T06:17:36;-0.70;99.90
35668;DHT22;22158;59.280;17.806;2022-12-18T06:20:03;-0.70;99.90
35668;DHT22;22158;59.280;17.806;2022-12-18T06:22:31;-0.70;99.90
35668;DHT22;22158;59.280;17.806;2022-12-18T06:24:57;-0.60;99.90
35668;DHT22;22158;59.280;17.806;2022-12-18T06:27:23;-0.70;99.90
35668;DHT22;22158;59.280;17.806;2022-12-18T06:29:48;-0.70;99.90
35668;DHT22;22158;59.280;17.806;2022-12-18T06:32:14;-0.70;99.90
35668;DHT22;22158;59.280;17.806;2022-12-18T06:34:40;-0.70;99.90
35668;DHT22;22158;59.280;17.806;2022-12-18T06:37:05;-0.70;99.90
35668;DHT22;22158;59.280;17.806;2022-12-18T06:39:31;-0.70;99.90
35668;DHT22;22158;59.280;17.806;2022-12-18T06:41:57;-0.70;99.90
35668;DHT22;22158;59.280;17.806;2022-12-18T06:44:23;-0.70;99.90
35668;DHT22;22158;59.280;17.806;2022-12-18T06:46:48;-0.70;99.90
35668;DHT22;22158;59.280;17.806;2022-12-18T06:49:15;-0.70;99.90
35668;DHT22;22158;59.280;17.806;2022-12-18T06:51:41;-0.70;99.90
35668;DHT22;22158;59.280;17.806;2022-12-18T06:54:07;-0.70;99.90
35668;DHT22;22158;59.280;17.806;2022-12-18T06:56:33;-0.80;99.90
35668;DHT22;22158;59.280;17.806;2022-12-18T06:58:59;-0.70;99.90
35668;DHT22;22158;59.280;17.806;2022-12-18T07:01:25;-0.70;99.90
35668;DHT22;22158;59.280;17.806;2022-12-18T07:03:55;-0.70;99.90
35668;DHT22;22158;59.280;17.806;2022-12-18T07:06:22;-0.70;99.90
35668;DHT22;22158;59.280;17.806;2022-12-18T07:08:49;-0.60;99.90
35668;DHT22;22158;59.280;17.806;2022-12-18T07:11:16;-0.60;99.90
35668;DHT22;22158;59.280;17.806;2022-12-18T07:13:42;-0.60;99.90
35668;DHT22;22158;59.280;17.806;2022-12-18T07:16:19;-0.70;99.90
35668;DHT22;22158;59.280;17.806;2022-12-18T07:18:45;-0.60;99.90
35668;DHT22;22158;59.280;17.806;2022-12-18T07:21:13;-0.60;99.90
35668;DHT22;22158;59.280;17.806;2022-12-18T07:23:39;-0.60;99.90
35668;DHT22;22158;59.280;17.806;2022-12-18T07:26:09;-0.50;99.90
35668;DHT22;22158;59.280;17.806;2022-12-18T07:28:38;-0.50;99.90
35668;DHT22;22158;59.280;17.806;2022-12-18T07:31:12;-0.40;99.90
35668;DHT22;22158;59.280;17.806;2022-12-18T07:33:37;-0.40;99.90
35668;DHT22;22158;59.280;17.806;2022-12-18T07:36:05;-0.40;99.90
35668;DHT22;22158;59.280;17.806;2022-12-18T07:38:33;-0.40;99.90
35668;DHT22;22158;59.280;17.806;2022-12-18T07:41:08;-0.40;99.90
35668;DHT22;22158;59.280;17.806;2022-12-18T07:43:35;-0.40;99.90
35668;DHT22;22158;59.280;17.806;2022-12-18T07:46:01;-0.30;99.90
35668;DHT22;22158;59.280;17.806;2022-12-18T07:48:28;-0.30;99.90
35668;DHT22;22158;59.280;17.806;2022-12-18T07:50:53;-0.30;99.90
35668;DHT22;22158;59.280;17.806;2022-12-18T07:53:19;-0.20;99.90
35668;DHT22;22158;59.280;17.806;2022-12-18T07:55:45;-0.20;99.90
35668;DHT22;22158;59.280;17.806;2022-12-18T07:58:10;-0.20;99.90
35668;DHT22;22158;59.280;17.806;2022-12-18T08:00:36;-0.20;99.90
35668;DHT22;22158;59.280;17.806;2022-12-18T08:03:02;-0.10;99.90
35668;DHT22;22158;59.280;17.806;2022-12-18T08:05:28;-0.10;99.90
35668;DHT22;22158;59.280;17.806;2022-12-18T08:07:54;0.00;99.90
35668;DHT22;22158;59.280;17.806;2022-12-18T08:10:20;0.00;99.90
35668;DHT22;22158;59.280;17.806;2022-12-18T08:12:49;0.00;99.90
35668;DHT22;22158;59.280;17.806;2022-12-18T08:15:15;0.00;99.90
35668;DHT22;22158;59.280;17.806;2022-12-18T08:17:41;0.10;99.90
35668;DHT22;22158;59.280;17.806;2022-12-18T08:20:07;0.10;99.90
35668;DHT22;22158;59.280;17.806;2022-12-18T08:22:34;0.10;99.90
35668;DHT22;22158;59.280;17.806;2022-12-18T08:25:01;0.20;99.90
35668;DHT22;22158;59.280;17.806;2022-12-18T08:27:27;0.20;99.90
35668;DHT22;22158;59.280;17.806;2022-12-18T08:29:53;0.30;99.90
35668;DHT22;22158;59.280;17.806;2022-12-18T08:32:18;0.20;99.90
35668;DHT22;22158;59.280;17.806;2022-12-18T08:34:44;0.30;99.90
35668;DHT22;22158;59.280;17.806;2022-12-18T08:37:10;0.30;99.90
35668;DHT22;22158;59.280;17.806;2022-12-18T08:39:35;0.40;99.90
35668;DHT22;22158;59.280;17.806;2022-12-18T08:42:01;0.50;99.90
35668;DHT22;22158;59.280;17.806;2022-12-18T08:44:45;0.50;99.90
35668;DHT22;22158;59.280;17.806;2022-12-18T08:47:11;0.60;99.90
35668;DHT22;22158;59.280;17.806;2022-12-18T08:49:36;0.60;99.90
35668;DHT22;22158;59.280;17.806;2022-12-18T08:52:02;0.50;99.90
35668;DHT22;22158;59.280;17.806;2022-12-18T08:54:28;0.60;99.90
35668;DHT22;22158;59.280;17.806;2022-12-18T08:56:54;0.60;99.90
35668;DHT22;22158;59.280;17.806;2022-12-18T08:59:20;0.70;99.90
35668;DHT22;22158;59.280;17.806;2022-12-18T09:01:46;0.70;99.90
35668;DHT22;22158;59.280;17.806;2022-12-18T09:04:12;0.70;99.90
35668;DHT22;22158;59.280;17.806;2022-12-18T09:06:39;0.70;99.90
35668;DHT22;22158;59.280;17.806;2022-12-18T09:09:05;0.80;99.90
35668;DHT22;22158;59.280;17.806;2022-12-18T09:11:32;0.80;99.90
35668;DHT22;22158;59.280;17.806;2022-12-18T09:14:00;0.80;99.90
35668;DHT22;22158;59.280;17.806;2022-12-18T09:16:27;0.90;99.90
35668;DHT22;22158;59.280;17.806;2022-12-18T09:18:54;0.90;99.90
35668;DHT22;22158;59.280;17.806;2022-12-18T09:21:26;0.90;99.90
35668;DHT22;22158;59.280;17.806;2022-12-18T09:23:54;0.90;99.90
35668;DHT22;22158;59.280;17.806;2022-12-18T09:26:21;1.00;99.90
35668;DHT22;22158;59.280;17.806;2022-12-18T09:28:47;1.10;99.90
35668;DHT22;22158;59.280;17.806;2022-12-18T09:31:14;1.10;99.90
35668;DHT22;22158;59.280;17.806;2022-12-18T09:33:40;1.10;99.90
35668;DHT22;22158;59.280;17.806;2022-12-18T09:36:08;1.10;99.90
35668;DHT22;22158;59.280;17.806;2022-12-18T09:38:35;1.20;99.90
35668;DHT22;22158;59.280;17.806;2022-12-18T09:41:31;1.20;99.90
35668;DHT22;22158;59.280;17.806;2022-12-18T09:43:53;1.30;99.90
35668;DHT22;22158;59.280;17.806;2022-12-18T09:47:04;1.30;99.90
35668;DHT22;22158;59.280;17.806;2022-12-18T09:49:34;1.30;99.90
35668;DHT22;22158;59.280;17.806;2022-12-18T09:52:27;1.30;99.90
35668;DHT22;22158;59.280;17.806;2022-12-18T09:55:11;1.30;99.90
35668;DHT22;22158;59.280;17.806;2022-12-18T09:57:47;1.40;99.90
35668;DHT22;22158;59.280;17.806;2022-12-18T10:00:21;1.30;99.90
35668;DHT22;22158;59.280;17.806;2022-12-18T10:02:47;1.40;99.90
35668;DHT22;22158;59.280;17.806;2022-12-18T10:05:17;1.40;99.90
35668;DHT22;22158;59.280;17.806;2022-12-18T10:10:41;1.50;99.90
35668;DHT22;22158;59.280;17.806;2022-12-18T10:13:23;1.50;99.90
35668;DHT22;22158;59.280;17.806;2022-12-18T10:24:26;1.50;99.90
35668;DHT22;22158;59.280;17.806;2022-12-18T10:27:14;1.50;99.90
35668;DHT22;22158;59.280;17.806;2022-12-18T10:29:42;1.50;99.90
35668;DHT22;22158;59.280;17.806;2022-12-18T10:32:17;1.60;99.90
35668;DHT22;22158;59.280;17.806;2022-12-18T10:34:51;1.60;99.90
35668;DHT22;22158;59.280;17.806;2022-12-18T10:37:19;1.60;99.90
35668;DHT22;22158;59.280;17.806;2022-12-18T10:39:46;1.60;99.90
35668;DHT22;22158;59.280;17.806;2022-12-18T10:42:17;1.60;99.90
35668;DHT22;22158;59.280;17.806;2022-12-18T10:44:44;1.60;99.90
35668;DHT22;22158;59.280;17.806;2022-12-18T10:47:18;1.70;99.90
35668;DHT22;22158;59.280;17.806;2022-12-18T10:49:54;1.60;99.90
35668;DHT22;22158;59.280;17.806;2022-12-18T10:52:23;1.60;99.90
35668;DHT22;22158;59.280;17.806;2022-12-18T10:54:55;1.60;99.90
35668;DHT22;22158;59.280;17.806;2022-12-18T10:59:56;1.60;99.90
35668;DHT22;22158;59.280;17.806;2022-12-18T11:02:37;1.60;99.90
35668;DHT22;22158;59.280;17.806;2022-12-18T11:05:25;1.60;99.90
35668;DHT22;22158;59.280;17.806;2022-12-18T11:07:51;1.60;99.90
35668;DHT22;22158;59.280;17.806;2022-12-18T11:10:21;1.60;99.90
35668;DHT22;22158;59.280;17.806;2022-12-18T11:12:47;1.70;99.90
35668;DHT22;22158;59.280;17.806;2022-12-18T11:15:24;1.70;99.90
35668;DHT22;22158;59.280;17.806;2022-12-18T11:17:51;1.70;99.90
35668;DHT22;22158;59.280;17.806;2022-12-18T11:20:36;1.70;99.90
35668;DHT22;22158;59.280;17.806;2022-12-18T11:23:04;1.70;99.90
35668;DHT22;22158;59.280;17.806;2022-12-18T11:25:32;1.60;99.90
35668;DHT22;22158;59.280;17.806;2022-12-18T11:28:04;1.60;99.90
35668;DHT22;22158;59.280;17.806;2022-12-18T11:30:32;1.70;99.90
35668;DHT22;22158;59.280;17.806;2022-12-18T11:33:10;1.70;99.90
35668;DHT22;22158;59.280;17.806;2022-12-18T11:35:49;1.70;99.90
35668;DHT22;22158;59.280;17.806;2022-12-18T11:38:28;1.70;99.90
35668;DHT22;22158;59.280;17.806;2022-12-18T11:43:56;1.80;99.90
35668;DHT22;22158;59.280;17.806;2022-12-18T11:46:33;1.80;99.90
35668;DHT22;22158;59.280;17.806;2022-12-18T11:49:12;1.80;99.90
35668;DHT22;22158;59.280;17.806;2022-12-18T11:54:34;1.80;99.90
35668;DHT22;22158;59.280;17.806;2022-12-18T12:00:24;1.90;99.90
35668;DHT22;22158;59.280;17.806;2022-12-18T12:08:44;2.00;99.90
35668;DHT22;22158;59.280;17.806;2022-12-18T12:13:53;2.00;99.90
35668;DHT22;22158;59.280;17.806;2022-12-18T12:16:28;2.10;99.90
35668;DHT22;22158;59.280;17.806;2022-12-18T12:21:44;2.10;99.90
35668;DHT22;22158;59.280;17.806;2022-12-18T12:27:10;2.10;99.90
35668;DHT22;22158;59.280;17.806;2022-12-18T12:38:05;2.20;99.90
35668;DHT22;22158;59.280;17.806;2022-12-18T12:40:36;2.10;99.90
35668;DHT22;22158;59.280;17.806;2022-12-18T12:43:22;2.20;99.90
35668;DHT22;22158;59.280;17.806;2022-12-18T12:46:06;2.20;99.90
35668;DHT22;22158;59.280;17.806;2022-12-18T12:51:15;2.30;99.90
35668;DHT22;22158;59.280;17.806;2022-12-18T12:53:42;2.30;99.90
35668;DHT22;22158;59.280;17.806;2022-12-18T12:56:11;2.30;99.90
35668;DHT22;22158;59.280;17.806;2022-12-18T13:01:59;2.40;99.90
35668;DHT22;22158;59.280;17.806;2022-12-18T13:04:44;2.40;99.90
35668;DHT22;22158;59.280;17.806;2022-12-18T13:07:17;2.40;99.90
35668;DHT22;22158;59.280;17.806;2022-12-18T13:10:49;2.40;99.90
35668;DHT22;22158;59.280;17.806;2022-12-18T13:12:56;2.40;99.90
35668;DHT22;22158;59.280;17.806;2022-12-18T13:15:34;2.50;99.90
35668;DHT22;22158;59.280;17.806;2022-12-18T13:26:43;2.50;99.90
35668;DHT22;22158;59.280;17.806;2022-12-18T13:33:50;2.50;99.90
35668;DHT22;22158;59.280;17.806;2022-12-18T13:41:43;2.60;99.90
35668;DHT22;22158;59.280;17.806;2022-12-18T13:44:13;2.60;99.90
35668;DHT22;22158;59.280;17.806;2022-12-18T13:46:46;2.60;99.90
35668;DHT22;22158;59.280;17.806;2022-12-18T13:51:41;2.50;99.90
35668;DHT22;22158;59.280;17.806;2022-12-18T13:54:35;2.60;99.90
35668;DHT22;22158;59.280;17.806;2022-12-18T13:57:03;2.60;99.90
35668;DHT22;22158;59.280;17.806;2022-12-18T13:59:36;2.60;99.90
35668;DHT22;22158;59.280;17.806;2022-12-18T14:02:17;2.60;99.90
35668;DHT22;22158;59.280;17.806;2022-12-18T14:04:45;2.50;99.90
35668;DHT22;22158;59.280;17.806;2022-12-18T14:07:17;2.50;99.90
35668;DHT22;22158;59.280;17.806;2022-12-18T14:09:46;2.50;99.90
35668;DHT22;22158;59.280;17.806;2022-12-18T14:17:50;2.50;99.90
35668;DHT22;22158;59.280;17.806;2022-12-18T14:20:17;2.50;99.90
35668;DHT22;22158;59.280;17.806;2022-12-18T14:22:45;2.50;99.90
35668;DHT22;22158;59.280;17.806;2022-12-18T14:25:25;2.50;99.90
35668;DHT22;22158;59.280;17.806;2022-12-18T14:27:52;2.40;99.90
35668;DHT22;22158;59.280;17.806;2022-12-18T14:30:31;2.50;99.90
35668;DHT22;22158;59.280;17.806;2022-12-18T14:33:21;2.40;99.90
35668;DHT22;22158;59.280;17.806;2022-12-18T14:35:57;2.40;99.90
35668;DHT22;22158;59.280;17.806;2022-12-18T14:41:03;2.40;99.90
35668;DHT22;22158;59.280;17.806;2022-12-18T14:43:31;2.40;99.90
35668;DHT22;22158;59.280;17.806;2022-12-18T14:45:57;2.40;99.90
35668;DHT22;22158;59.280;17.806;2022-12-18T14:51:13;2.40;99.90
35668;DHT22;22158;59.280;17.806;2022-12-18T14:53:45;2.40;99.90
35668;DHT22;22158;59.280;17.806;2022-12-18T14:56:17;2.40;99.90
35668;DHT22;22158;59.280;17.806;2022-12-18T14:58:49;2.30;99.90
35668;DHT22;22158;59.280;17.806;2022-12-18T15:03:51;2.30;99.90
35668;DHT22;22158;59.280;17.806;2022-12-18T15:06:37;2.30;99.90
35668;DHT22;22158;59.280;17.806;2022-12-18T15:09:24;2.30;99.90
35668;DHT22;22158;59.280;17.806;2022-12-18T15:11:59;2.30;99.90
35668;DHT22;22158;59.280;17.806;2022-12-18T15:14:33;2.40;99.90
35668;DHT22;22158;59.280;17.806;2022-12-18T15:17:06;2.40;99.90
35668;DHT22;22158;59.280;17.806;2022-12-18T15:19:41;2.40;99.90
35668;DHT22;22158;59.280;17.806;2022-12-18T15:22:26;2.30;99.90
35668;DHT22;22158;59.280;17.806;2022-12-18T15:24:57;2.40;99.90
35668;DHT22;22158;59.280;17.806;2022-12-18T15:27:29;2.40;99.90
35668;DHT22;22158;59.280;17.806;2022-12-18T15:32:34;2.40;99.90
35668;DHT22;22158;59.280;17.806;2022-12-18T15:35:22;2.40;99.90
35668;DHT22;22158;59.280;17.806;2022-12-18T15:37:49;2.40;99.90
35668;DHT22;22158;59.280;17.806;2022-12-18T15:40:18;2.40;99.90
35668;DHT22;22158;59.280;17.806;2022-12-18T15:42:44;2.40;99.90
35668;DHT22;22158;59.280;17.806;2022-12-18T15:45:29;2.30;99.90
35668;DHT22;22158;59.280;17.806;2022-12-18T15:47:55;2.30;99.90
35668;DHT22;22158;59.280;17.806;2022-12-18T15:50:21;2.30;99.90
35668;DHT22;22158;59.280;17.806;2022-12-18T15:52:49;2.30;99.90
35668;DHT22;22158;59.280;17.806;2022-12-18T15:55:17;2.30;99.90
35668;DHT22;22158;59.280;17.806;2022-12-18T15:58:04;2.20;99.90
35668;DHT22;22158;59.280;17.806;2022-12-18T16:00:30;2.20;99.90
35668;DHT22;22158;59.280;17.806;2022-12-18T16:02:56;2.30;99.90
35668;DHT22;22158;59.280;17.806;2022-12-18T16:05:23;2.20;99.90
35668;DHT22;22158;59.280;17.806;2022-12-18T16:07:49;2.20;99.90
35668;DHT22;22158;59.280;17.806;2022-12-18T16:10:15;2.30;99.90
35668;DHT22;22158;59.280;17.806;2022-12-18T16:12:41;2.30;99.90
35668;DHT22;22158;59.280;17.806;2022-12-18T16:15:07;2.30;99.90
35668;DHT22;22158;59.280;17.806;2022-12-18T16:17:35;2.20;99.90
35668;DHT22;22158;59.280;17.806;2022-12-18T16:20:00;2.30;99.90
35668;DHT22;22158;59.280;17.806;2022-12-18T16:22:28;2.20;99.90
35668;DHT22;22158;59.280;17.806;2022-12-18T16:24:55;2.20;99.90
35668;DHT22;22158;59.280;17.806;2022-12-18T16:27:22;2.20;99.90
35668;DHT22;22158;59.280;17.806;2022-12-18T16:29:48;2.30;99.90
35668;DHT22;22158;59.280;17.806;2022-12-18T16:32:20;2.30;99.90
35668;DHT22;22158;59.280;17.806;2022-12-18T16:34:46;2.20;99.90
35668;DHT22;22158;59.280;17.806;2022-12-18T16:37:14;2.30;99.90
35668;DHT22;22158;59.280;17.806;2022-12-18T16:39:41;2.30;99.90
35668;DHT22;22158;59.280;17.806;2022-12-18T16:42:15;2.20;99.90
35668;DHT22;22158;59.280;17.806;2022-12-18T16:44:42;2.30;99.90
35668;DHT22;22158;59.280;17.806;2022-12-18T16:47:09;2.20;99.90
35668;DHT22;22158;59.280;17.806;2022-12-18T16:49:35;2.30;99.90
35668;DHT22;22158;59.280;17.806;2022-12-18T16:52:00;2.20;99.90
35668;DHT22;22158;59.280;17.806;2022-12-18T16:54:26;2.20;99.90
35668;DHT22;22158;59.280;17.806;2022-12-18T16:56:55;2.20;99.90
35668;DHT22;22158;59.280;17.806;2022-12-18T16:59:21;2.30;99.90
35668;DHT22;22158;59.280;17.806;2022-12-18T17:01:47;2.30;99.90
35668;DHT22;22158;59.280;17.806;2022-12-18T17:04:13;2.30;99.90
35668;DHT22;22158;59.280;17.806;2022-12-18T17:06:42;2.30;99.90
35668;DHT22;22158;59.280;17.806;2022-12-18T17:09:12;2.30;99.90
35668;DHT22;22158;59.280;17.806;2022-12-18T17:11:39;2.20;99.90
35668;DHT22;22158;59.280;17.806;2022-12-18T17:14:06;2.30;99.90
35668;DHT22;22158;59.280;17.806;2022-12-18T17:16:32;2.20;99.90
35668;DHT22;22158;59.280;17.806;2022-12-18T17:18:58;2.20;99.90
35668;DHT22;22158;59.280;17.806;2022-12-18T17:21:24;2.20;99.90
35668;DHT22;22158;59.280;17.806;2022-12-18T17:23:50;2.20;99.90
35668;DHT22;22158;59.280;17.806;2022-12-18T17:26:15;2.20;99.90
35668;DHT22;22158;59.280;17.806;2022-12-18T17:28:41;2.10;99.90
35668;DHT22;22158;59.280;17.806;2022-12-18T17:31:18;2.10;99.90
35668;DHT22;22158;59.280;17.806;2022-12-18T17:33:44;2.10;99.90
35668;DHT22;22158;59.280;17.806;2022-12-18T17:36:11;2.00;99.90
35668;DHT22;22158;59.280;17.806;2022-12-18T17:38:37;2.00;99.90
35668;DHT22;22158;59.280;17.806;2022-12-18T17:41:06;2.00;99.90
35668;DHT22;22158;59.280;17.806;2022-12-18T17:43:32;2.10;99.90
35668;DHT22;22158;59.280;17.806;2022-12-18T17:46:04;1.90;99.90
35668;DHT22;22158;59.280;17.806;2022-12-18T17:48:31;1.90;99.90
35668;DHT22;22158;59.280;17.806;2022-12-18T17:51:03;1.90;99.90
35668;DHT22;22158;59.280;17.806;2022-12-18T17:53:29;1.80;99.90
35668;DHT22;22158;59.280;17.806;2022-12-18T17:55:56;1.80;99.90
35668;DHT22;22158;59.280;17.806;2022-12-18T17:58:22;1.90;99.90
35668;DHT22;22158;59.280;17.806;2022-12-18T18:00:48;1.90;99.90
35668;DHT22;22158;59.280;17.806;2022-12-18T18:03:14;1.90;99.90
35668;DHT22;22158;59.280;17.806;2022-12-18T18:05:40;1.90;99.90
35668;DHT22;22158;59.280;17.806;2022-12-18T18:08:06;2.00;99.90
35668;DHT22;22158;59.280;17.806;2022-12-18T18:10:34;1.90;99.90
35668;DHT22;22158;59.280;17.806;2022-12-18T18:13:03;1.90;99.90
35668;DHT22;22158;59.280;17.806;2022-12-18T18:15:57;1.90;99.90
35668;DHT22;22158;59.280;17.806;2022-12-18T18:18:23;1.90;99.90
35668;DHT22;22158;59.280;17.806;2022-12-18T18:20:49;1.90;99.90
35668;DHT22;22158;59.280;17.806;2022-12-18T18:23:15;1.90;99.90
35668;DHT22;22158;59.280;17.806;2022-12-18T18:25:41;1.80;99.90
35668;DHT22;22158;59.280;17.806;2022-12-18T18:28:07;1.80;99.90
35668;DHT22;22158;59.280;17.806;2022-12-18T18:30:32;1.80;99.90
35668;DHT22;22158;59.280;17.806;2022-12-18T18:32:58;1.80;99.90
35668;DHT22;22158;59.280;17.806;2022-12-18T18:35:24;1.80;99.90
35668;DHT22;22158;59.280;17.806;2022-12-18T18:37:49;1.80;99.90
35668;DHT22;22158;59.280;17.806;2022-12-18T18:40:15;1.80;99.90
35668;DHT22;22158;59.280;17.806;2022-12-18T18:42:41;1.80;99.90
35668;DHT22;22158;59.280;17.806;2022-12-18T18:45:07;1.80;99.90
35668;DHT22;22158;59.280;17.806;2022-12-18T18:47:32;1.70;99.90
35668;DHT22;22158;59.280;17.806;2022-12-18T18:49:58;1.70;99.90
35668;DHT22;22158;59.280;17.806;2022-12-18T18:52:24;1.60;99.90
35668;DHT22;22158;59.280;17.806;2022-12-18T18:54:50;1.60;99.90
35668;DHT22;22158;59.280;17.806;2022-12-18T18:57:15;1.50;99.90
35668;DHT22;22158;59.280;17.806;2022-12-18T18:59:41;1.40;99.90
35668;DHT22;22158;59.280;17.806;2022-12-18T19:02:12;1.40;99.90
35668;DHT22;22158;59.280;17.806;2022-12-18T19:04:38;1.40;99.90
35668;DHT22;22158;59.280;17.806;2022-12-18T19:07:04;1.30;99.90
35668;DHT22;22158;59.280;17.806;2022-12-18T19:09:30;1.30;99.90
35668;DHT22;22158;59.280;17.806;2022-12-18T19:11:56;1.20;99.90
35668;DHT22;22158;59.280;17.806;2022-12-18T19:14:41;1.10;99.90
35668;DHT22;22158;59.280;17.806;2022-12-18T19:17:07;1.20;99.90
35668;DHT22;22158;59.280;17.806;2022-12-18T19:19:32;1.10;99.90
35668;DHT22;22158;59.280;17.806;2022-12-18T19:21:58;1.10;99.90
35668;DHT22;22158;59.280;17.806;2022-12-18T19:24:25;1.20;99.90
35668;DHT22;22158;59.280;17.806;2022-12-18T19:26:50;1.30;99.90
35668;DHT22;22158;59.280;17.806;2022-12-18T19:29:16;1.30;99.90
35668;DHT22;22158;59.280;17.806;2022-12-18T19:31:42;1.30;99.90
35668;DHT22;22158;59.280;17.806;2022-12-18T19:34:09;1.30;99.90
35668;DHT22;22158;59.280;17.806;2022-12-18T19:36:37;1.20;99.90
35668;DHT22;22158;59.280;17.806;2022-12-18T19:39:09;1.20;99.90
35668;DHT22;22158;59.280;17.806;2022-12-18T19:41:35;1.20;99.90
35668;DHT22;22158;59.280;17.806;2022-12-18T19:44:01;1.10;99.90
35668;DHT22;22158;59.280;17.806;2022-12-18T19:46:27;1.10;99.90
35668;DHT22;22158;59.280;17.806;2022-12-18T19:48:52;1.10;99.90
35668;DHT22;22158;59.280;17.806;2022-12-18T19:51:23;1.10;99.90
35668;DHT22;22158;59.280;17.806;2022-12-18T19:53:49;1.10;99.90
35668;DHT22;22158;59.280;17.806;2022-12-18T19:56:18;1.10;99.90
35668;DHT22;22158;59.280;17.806;2022-12-18T19:58:44;1.00;99.90
35668;DHT22;22158;59.280;17.806;2022-12-18T20:01:11;1.00;99.90
35668;DHT22;22158;59.280;17.806;2022-12-18T20:03:36;1.00;99.90
35668;DHT22;22158;59.280;17.806;2022-12-18T20:08:34;1.00;99.90
35668;DHT22;22158;59.280;17.806;2022-12-18T20:11:00;1.10;99.90
35668;DHT22;22158;59.280;17.806;2022-12-18T20:13:25;1.10;99.90
35668;DHT22;22158;59.280;17.806;2022-12-18T20:15:51;1.00;99.90
35668;DHT22;22158;59.280;17.806;2022-12-18T20:18:17;0.90;99.90
35668;DHT22;22158;59.280;17.806;2022-12-18T20:20:42;1.00;99.90
35668;DHT22;22158;59.280;17.806;2022-12-18T20:23:08;1.00;99.90
35668;DHT22;22158;59.280;17.806;2022-12-18T20:25:34;1.00;99.90
35668;DHT22;22158;59.280;17.806;2022-12-18T20:28:00;0.90;99.90
35668;DHT22;22158;59.280;17.806;2022-12-18T20:30:26;0.90;99.90
35668;DHT22;22158;59.280;17.806;2022-12-18T20:32:52;1.00;99.90
35668;DHT22;22158;59.280;17.806;2022-12-18T20:35:18;1.10;99.90
35668;DHT22;22158;59.280;17.806;2022-12-18T20:37:43;1.10;99.90
35668;DHT22;22158;59.280;17.806;2022-12-18T20:40:09;1.10;99.90
35668;DHT22;22158;59.280;17.806;2022-12-18T20:42:35;1.00;99.90
35668;DHT22;22158;59.280;17.806;2022-12-18T20:45:01;1.00;99.90
35668;DHT22;22158;59.280;17.806;2022-12-18T20:47:26;1.00;99.90
35668;DHT22;22158;59.280;17.806;2022-12-18T20:49:52;0.90;99.90
35668;DHT22;22158;59.280;17.806;2022-12-18T20:52:18;0.80;99.90
35668;DHT22;22158;59.280;17.806;2022-12-18T20:54:43;0.80;99.90
35668;DHT22;22158;59.280;17.806;2022-12-18T20:57:09;0.80;99.90
35668;DHT22;22158;59.280;17.806;2022-12-18T20:59:35;0.80;99.90
35668;DHT22;22158;59.280;17.806;2022-12-18T21:02:00;0.80;99.90
35668;DHT22;22158;59.280;17.806;2022-12-18T21:04:26;0.80;99.90
35668;DHT22;22158;59.280;17.806;2022-12-18T21:06:52;0.80;99.90
35668;DHT22;22158;59.280;17.806;2022-12-18T21:09:19;0.80;99.90
35668;DHT22;22158;59.280;17.806;2022-12-18T21:11:45;0.70;99.90
35668;DHT22;22158;59.280;17.806;2022-12-18T21:14:29;0.70;99.90
35668;DHT22;22158;59.280;17.806;2022-12-18T21:16:56;0.60;99.90
35668;DHT22;22158;59.280;17.806;2022-12-18T21:19:24;0.60;99.90
35668;DHT22;22158;59.280;17.806;2022-12-18T21:21:50;0.60;99.90
35668;DHT22;22158;59.280;17.806;2022-12-18T21:24:17;0.60;99.90
35668;DHT22;22158;59.280;17.806;2022-12-18T21:26:44;0.60;99.90
35668;DHT22;22158;59.280;17.806;2022-12-18T21:29:16;0.50;99.90
35668;DHT22;22158;59.280;17.806;2022-12-18T21:31:42;0.50;99.90
35668;DHT22;22158;59.280;17.806;2022-12-18T21:34:16;0.40;99.90
35668;DHT22;22158;59.280;17.806;2022-12-18T21:36:43;0.40;99.90
35668;DHT22;22158;59.280;17.806;2022-12-18T21:39:08;0.50;99.90
35668;DHT22;22158;59.280;17.806;2022-12-18T21:41:34;0.50;99.90
35668;DHT22;22158;59.280;17.806;2022-12-18T21:44:18;0.50;99.90
35668;DHT22;22158;59.280;17.806;2022-12-18T21:46:46;0.50;99.90
35668;DHT22;22158;59.280;17.806;2022-12-18T21:49:13;0.50;99.90
35668;DHT22;22158;59.280;17.806;2022-12-18T21:51:41;0.40;99.90
35668;DHT22;22158;59.280;17.806;2022-12-18T21:54:07;0.50;99.90
35668;DHT22;22158;59.280;17.806;2022-12-18T21:56:49;0.50;99.90
35668;DHT22;22158;59.280;17.806;2022-12-18T21:59:27;0.50;99.90
35668;DHT22;22158;59.280;17.806;2022-12-18T22:01:55;0.40;99.90
35668;DHT22;22158;59.280;17.806;2022-12-18T22:04:22;0.40;99.90
35668;DHT22;22158;59.280;17.806;2022-12-18T22:06:48;0.40;99.90
35668;DHT22;22158;59.280;17.806;2022-12-18T22:09:17;0.40;99.90
35668;DHT22;22158;59.280;17.806;2022-12-18T22:11:43;0.40;99.90